Estación municipal de Aiguafreda (Osona, P.N. del Montseny)

Consulta los datos en tiempo real de la estación municipal de Aiguafreda





Hora UTC 14:10
Temperatura 16.3 ºC
Suelo 15 cm 15.7 ºC
Humedad 87.5 %
Presión 1011.2 hPa
Pluja 0.1 mm
Velocidad viento 9.3 km/h
Dirección viento SSE
Radiación solar 46.7 W/m²

Datos diarios 2026-05-04



Hora UTC (invierno +1h; verano +2h)
Temperatura (ºC) Humedad (%) Presión (hPa) Velocidad viento (km/h) Precipitación (mm) Radiación solar (W/m²)
Hora UTC Aire Suelo 15 cm Humedad Presión Vel. Dir. Vel. Max Dir. Intent. máx 5 min. Rad. Sol.
00:05 13.7 13.1 91.1 1013.6 0.8 WSW 0.8 WSW 0.0 1.5
00:10 13.7 13.2 90.9 1013.6 0.0 NNE 0.0 NNW 0.0 1.4
00:15 13.7 13.1 90.9 1013.6 0.0 NNE 0.0 NW 0.0 1.5
00:20 13.7 13.1 90.9 1013.5 1.1 SSE 6.1 SSE 0.0 1.5
00:25 13.7 13.1 90.8 1013.5 0.3 SSE 3.4 S 0.0 1.5
00:30 13.7 13.1 90.7 1013.6 0.0 NNE 0.0 E 0.0 1.6
00:35 13.7 13.1 90.7 1013.5 0.0 NNE 0.0 E 0.0 1.6
00:40 13.7 13.0 90.7 1013.5 0.0 NNE 0.0 E 0.0 1.5
00:45 13.6 12.9 90.5 1013.5 0.0 NNE 0.0 E 0.0 1.5
00:50 13.5 12.6 90.5 1013.4 0.0 NNE 0.0 E 0.0 1.6
00:55 13.5 12.5 90.9 1013.4 0.0 NNE 0.0 E 0.0 1.6
01:00 13.4 12.5 91.1 1013.3 0.0 NNE 0.0 E 0.0 1.7
01:05 13.4 12.4 91.2 1013.1 0.0 NNE 0.0 E 0.0 1.5
01:10 13.4 12.4 91.4 1013.1 0.0 NNE 0.0 E 0.0 1.8
01:15 13.4 12.4 91.3 1013.2 0.1 WNW 3.4 WNW 0.0 1.5
01:20 13.3 12.5 91.1 1013.2 0.4 NW 6.1 NW 0.0 1.6
01:25 13.3 12.5 91.0 1013.2 0.0 NNE 0.0 N 0.0 1.6
01:30 13.3 12.5 91.0 1013.1 0.0 NNE 0.0 0.0 1.6
01:35 13.4 12.5 90.9 1013.2 0.0 NNE 0.0 0.0 1.6
01:40 13.4 12.6 90.8 1013.1 0.2 NNW 6.1 N 0.0 1.6
01:45 13.4 12.6 90.9 1013.0 0.1 NW 3.4 NW 0.0 1.7
01:50 13.4 12.7 90.8 1012.9 0.0 NNE 0.0 NNW 0.0 1.5
01:55 13.4 12.7 90.6 1012.9 0.6 ESE 6.1 SSE 0.0 1.5
02:00 13.4 12.7 90.6 1012.9 0.0 NNE 0.0 ESE 0.0 1.5
02:05 13.4 12.7 90.5 1012.9 0.0 NNE 0.0 W 0.0 1.5
02:10 13.5 12.8 90.4 1012.9 0.0 NNE 0.0 W 0.0 1.6
02:15 13.5 12.8 90.2 1012.9 0.0 NNE 0.0 WSW 0.0 1.5
02:20 13.5 12.8 90.0 1012.9 0.0 NNE 0.0 NW 0.0 1.6
02:25 13.5 12.8 89.9 1012.9 0.0 NNE 0.0 NW 0.0 1.6
02:30 13.5 12.8 89.8 1012.8 0.0 NNE 0.0 SW 0.0 1.7
02:35 13.5 12.8 89.8 1012.7 0.0 NNE 0.0 ENE 0.0 1.5
02:40 13.6 12.9 89.7 1012.7 0.0 NNE 0.0 SE 0.0 1.6
02:45 13.6 12.9 89.5 1012.7 0.0 NNE 0.0 WSW 0.0 1.6
02:50 13.6 12.9 89.3 1012.7 0.0 NNE 0.0 WSW 0.0 1.7
02:55 13.6 12.9 89.3 1012.8 0.0 NNE 0.0 WSW 0.0 1.5
03:00 13.6 12.9 89.2 1012.8 0.0 NNE 0.0 WSW 0.0 1.5
03:05 13.6 12.9 89.0 1012.8 0.0 NNE 0.0 E 0.0 1.5
03:10 13.7 13.0 88.9 1012.9 0.0 NNE 0.0 E 0.0 1.6
03:15 13.7 13.0 88.7 1012.8 0.0 NNE 0.0 NNE 0.0 1.5
03:20 13.7 13.0 88.6 1012.7 0.0 NNE 0.0 NNW 0.0 1.4
03:25 13.7 12.9 88.6 1012.7 0.0 NNE 0.0 WSW 0.0 1.5
03:30 13.7 12.9 88.7 1012.6 0.0 NNE 0.0 NW 0.0 1.5
03:35 13.6 12.9 88.8 1012.6 0.0 NNE 0.0 NW 0.0 1.5
03:40 13.6 12.9 89.0 1012.5 0.0 NNE 0.0 WNW 0.0 1.6
03:45 13.5 12.8 89.3 1012.5 0.0 NNE 0.0 NNW 0.0 1.6
03:50 13.5 12.7 89.4 1012.5 0.0 NNE 0.0 NNW 0.0 1.6
03:55 13.5 12.6 89.4 1012.5 0.0 NNE 0.0 NNW 0.0 1.5
04:00 13.4 12.5 89.4 1012.5 0.0 NNE 0.0 NNW 0.0 1.5
04:05 13.4 12.5 89.8 1012.4 0.0 NNE 0.0 NNW 0.0 1.5
04:10 13.4 12.5 89.9 1012.4 0.0 NNE 0.0 NNW 0.0 1.7
04:15 13.4 12.5 90.1 1012.4 0.0 NNE 0.0 NNW 0.0 1.5
04:20 13.3 12.4 90.1 1012.4 0.0 NNE 0.0 NW 0.0 1.8
04:25 13.3 12.3 90.1 1012.4 0.0 NNE 0.0 W 0.0 2.0
04:30 13.3 12.3 90.2 1012.3 0.0 NNE 0.0 W 0.0 1.8
04:35 13.3 12.3 90.5 1012.3 0.0 NNE 0.0 NNW 0.0 2.2
04:40 13.3 12.3 90.7 1012.3 0.0 NNE 0.0 ESE 0.0 3.0
04:45 13.3 12.3 90.8 1012.3 0.0 NNE 0.0 WSW 0.0 3.4
04:50 13.3 12.3 90.7 1012.3 0.0 NNE 0.0 WSW 0.0 4.1
04:55 13.3 12.4 90.7 1012.4 0.4 N 3.4 NNE 0.0 5.0
05:00 13.3 12.4 90.8 1012.4 0.1 ENE 3.4 E 0.0 4.8
05:05 13.4 12.5 90.8 1012.4 0.1 NE 3.4 NE 0.0 6.0
05:10 13.4 12.5 90.7 1012.4 0.0 NNE 0.0 NE 0.0 7.3
05:15 13.4 12.6 90.7 1012.4 0.0 NNE 0.0 E 0.0 7.8
05:20 13.4 12.6 90.7 1012.4 0.0 NNE 0.0 E 0.0 8.8
05:25 13.4 12.6 90.6 1012.5 0.0 NNE 0.0 SE 0.0 12.9
05:30 13.5 12.8 90.5 1012.5 0.0 NNE 0.0 SE 0.0 22.1
05:35 13.5 12.9 90.2 1012.4 0.0 NNE 0.0 SE 0.0 26.3
05:40 13.6 13.0 90.2 1012.4 0.0 NNE 0.0 W 0.0 27.8
05:45 13.7 13.1 90.0 1012.4 0.0 NNE 0.0 W 0.0 27.9
05:50 13.7 13.2 89.8 1012.3 0.2 WNW 3.4 NNW 0.0 37.8
05:55 13.8 13.4 89.7 1012.3 0.8 NE 6.1 NE 0.0 49.5
06:00 13.9 13.6 89.5 1012.3 0.3 ENE 6.1 NE 0.0 60.3
06:05 14.0 13.8 89.2 1012.3 0.1 ESE 3.4 E 0.0 87.0
06:10 14.2 14.2 88.8 1012.4 0.4 S 3.4 SSE 0.0 96.7
06:15 14.2 14.3 88.0 1012.4 1.4 ESE 6.1 SSE 0.0 95.7
06:20 14.3 14.4 87.4 1012.3 2.3 N 6.1 N 0.0 103.6
06:25 14.4 14.5 86.9 1012.3 0.8 NE 6.1 N 0.0 113.1
06:30 14.5 14.4 86.4 1012.2 2.1 NNE 8.8 NNE 0.0 134.2
06:35 14.7 14.3 86.3 1012.2 1.4 NE 8.8 NE 0.0 169.3
06:40 14.9 14.2 85.8 1012.3 3.3 NE 8.8 NNE 0.0 202.1
06:45 15.5 14.4 84.2 1012.3 3.4 NNE 8.8 NNE 0.0 139.7
06:50 15.9 14.6 81.8 1012.4 2.4 NE 8.8 NE 0.0 127.0
06:55 16.0 14.9 81.3 1012.4 0.4 NNW 6.1 N 0.0 134.7
07:00 16.1 15.1 81.1 1012.4 0.8 NE 6.1 NE 0.0 331.4
07:05 16.3 15.5 80.3 1012.4 1.1 WSW 6.1 E 0.0 325.1
07:10 16.6 15.7 78.0 1012.4 0.7 NE 6.1 NE 0.0 339.6
07:15 16.9 16.0 75.9 1012.3 0.6 NNE 6.1 ENE 0.0 351.1
07:20 17.4 16.3 74.2 1012.4 2.5 WSW 8.8 WSW 0.0 370.4
07:25 17.7 16.6 71.2 1012.2 0.9 W 6.1 WSW 0.0 391.2
07:30 18.0 16.8 69.6 1012.2 2.3 WNW 8.8 NNW 0.0 399.7
07:35 18.2 17.2 66.7 1012.2 1.3 NE 6.1 N 0.0 403.1
07:40 18.6 18.2 66.6 1012.1 0.2 WSW 3.4 WNW 0.0 450.8
07:45 19.0 20.4 64.2 1012.0 1.1 NNW 6.1 WSW 0.0 521.6
07:50 19.5 22.5 63.6 1012.0 0.6 W 6.1 SW 0.0 615.6
07:55 20.2 23.6 61.3 1011.8 0.3 NE 6.1 NNE 0.0 410.8
08:00 20.2 24.4 60.0 1011.7 0.7 SW 6.1 SW 0.0 559.6
08:05 20.4 26.0 58.6 1011.8 1.3 S 6.1 S 0.0 610.0
08:10 20.5 26.6 58.8 1011.7 3.1 SSW 8.8 SW 0.0 601.4
08:15 20.6 28.0 57.7 1011.8 3.5 WSW 11.5 W 0.0 622.8
08:20 20.9 29.1 58.4 1011.6 0.8 SW 6.1 SW 0.0 646.4
08:25 21.4 29.5 56.6 1011.7 0.7 ENE 8.8 E 0.0 595.5
08:30 21.3 27.7 55.9 1011.7 3.2 NW 8.8 N 0.0 326.6
08:35 20.5 27.1 58.9 1011.8 3.9 NE 14.2 WNW 0.0 408.6
08:40 20.4 26.2 60.7 1011.7 4.2 NE 11.5 ENE 0.0 540.0
08:45 20.3 24.9 60.4 1011.6 5.2 NE 11.5 ENE 0.0 299.6
08:50 20.2 24.1 60.9 1011.8 3.2 N 8.8 WSW 0.0 402.0
08:55 20.3 25.2 58.1 1011.9 7.4 WSW 14.2 SW 0.0 602.5
09:00 20.7 25.6 57.0 1011.8 8.3 SW 19.6 SW 0.0 537.5
09:05 20.8 25.8 56.5 1011.8 4.1 SSW 11.5 SW 0.0 472.0
09:10 20.8 25.5 56.4 1011.7 3.8 W 11.5 SW 0.0 364.9
09:15 20.7 25.1 56.7 1011.9 2.3 SW 8.8 W 0.0 340.6
09:20 20.5 24.8 57.4 1011.7 0.2 S 3.4 SSE 0.0 284.2
09:25 20.3 24.6 58.9 1011.9 3.7 SSE 14.2 WSW 0.0 451.5
09:30 20.3 24.3 58.4 1011.8 7.8 WSW 19.6 SW 0.0 378.3
09:35 20.0 24.7 59.1 1011.9 4.5 W 11.5 W 0.0 640.9
09:40 20.7 27.2 57.9 1011.9 1.4 W 8.8 W 0.0 759.0
09:45 21.0 26.9 56.1 1011.7 2.7 SSE 8.8 SSE 0.0 668.5
09:50 20.7 26.5 56.9 1011.5 4.5 SSE 8.8 SSW 0.0 518.3
09:55 20.8 25.7 57.5 1011.3 1.9 ESE 8.8 ESE 0.0 464.0
10:00 21.1 26.4 56.6 1011.3 4.0 NNW 11.5 WNW 0.0 601.4
10:05 21.1 27.1 54.9 1011.3 2.9 WSW 11.5 SW 0.0 494.9
10:10 21.7 28.7 53.9 1011.3 2.1 WSW 8.8 W 0.0 879.0
10:15 22.4 29.5 51.8 1011.5 1.7 SE 6.1 SW 0.0 654.5
10:20 22.0 26.7 52.8 1011.3 2.1 ESE 6.1 E 0.0 327.6
10:25 21.9 26.3 53.4 1011.4 0.8 ESE 8.8 ESE 0.0 348.1
10:30 21.8 25.5 53.2 1011.3 2.6 ESE 8.8 E 0.0 332.4
10:35 21.5 24.8 53.9 1011.3 2.1 ESE 8.8 SE 0.0 405.3
10:40 21.5 24.7 53.9 1011.2 1.6 SE 6.1 S 0.0 334.9
10:45 21.5 24.7 54.6 1011.3 4.7 SE 11.5 SE 0.0 345.1
10:50 21.5 24.4 54.9 1011.2 3.9 SSE 11.5 SSE 0.0 301.5
10:55 21.6 24.2 55.0 1011.2 4.9 SSE 8.8 SE 0.0 414.1
11:00 22.0 24.8 53.9 1011.1 4.9 S 11.5 SSE 0.0 378.1
11:05 22.1 24.8 54.8 1011.1 8.9 SSE 22.3 SE 0.0 429.7
11:10 21.7 24.0 57.8 1011.1 11.2 SSE 19.6 SSE 0.0 433.1
11:15 21.2 23.3 60.0 1011.1 11.8 SSE 22.3 S 0.0 445.0
11:20 21.1 23.5 61.8 1011.0 11.7 SE 22.3 SSE 0.0 347.3
11:25 20.8 22.6 62.7 1010.9 11.5 SE 22.3 S 0.0 287.1
11:30 20.5 22.2 63.1 1011.1 11.9 SE 25.0 SSE 0.0 267.3
11:35 20.1 21.6 66.5 1011.2 12.8 SE 25.0 ESE 0.0 282.7
11:40 19.8 21.3 69.3 1011.1 11.9 SE 25.0 SSE 0.0 240.8
11:45 19.2 20.3 71.1 1011.1 13.9 SE 27.7 SE 0.0 211.0
11:50 19.1 20.2 71.9 1011.1 10.3 SE 22.3 SE 0.0 200.1
11:55 19.1 20.0 70.9 1011.2 10.2 SE 16.9 SE 0.0 153.9
12:00 18.9 19.5 71.4 1011.0 6.6 SE 16.9 SE 0.0 106.4
12:05 18.8 19.4 71.1 1011.1 4.5 SE 14.2 ESE 0.0 103.9
12:10 18.8 19.1 71.3 1011.0 7.6 SE 16.9 SE 0.0 115.3
12:15 18.7 18.8 71.9 1011.1 8.7 SSE 14.2 SE 0.0 151.4
12:20 18.6 18.7 74.0 1011.0 7.7 SSE 16.9 SSE 0.0 208.4
12:25 18.7 19.2 74.7 1010.8 6.5 S 14.2 SSE 0.0 294.2
12:30 18.8 19.3 75.3 1010.8 8.3 SSE 22.3 ESE 0.0 374.2
12:35 18.6 19.2 77.2 1010.8 12.6 SSE 22.3 SE 0.0 413.5
12:40 18.3 19.3 77.9 1010.6 12.1 SSE 25.0 SSE 0.0 409.4
12:45 18.3 19.7 78.1 1010.7 14.6 SSE 25.0 SE 0.0 451.1
12:50 18.3 19.9 77.9 1010.6 13.8 SSE 30.4 SSE 0.0 466.3
12:55 18.3 20.2 77.4 1010.6 12.9 SSE 25.0 SE 0.0 385.2
13:00 18.3 20.0 77.7 1010.7 10.1 SSE 19.6 SSE 0.0 239.6
13:05 18.1 19.2 78.4 1010.9 12.8 SSE 22.3 SSE 0.0 198.7
13:10 17.9 18.9 78.8 1011.0 11.5 SSE 19.6 S 0.0 144.8
13:15 17.7 18.4 79.8 1011.1 11.4 SSE 19.6 SSE 0.0 72.4
13:20 17.5 17.9 80.3 1011.1 8.7 SSE 16.9 SSE 0.0 60.9
13:25 17.4 17.7 81.1 1011.1 8.1 SE 14.2 SE 0.0 62.4
13:30 17.3 17.6 81.5 1011.0 8.0 SSE 14.2 S 0.0 98.1
13:35 17.3 17.7 82.0 1010.8 8.1 SE 16.9 SE 0.0 179.3
13:40 17.3 17.9 81.7 1010.8 10.0 SSE 16.9 SSE 0.0 225.5
13:45 17.4 18.0 82.5 1011.0 10.3 SE 19.6 SE 0.0 165.5
13:50 17.4 17.7 83.5 1011.0 9.7 SE 22.3 SE 0.0 142.3
13:55 17.0 17.1 84.1 1011.0 11.5 SE 22.3 ESE 0.0 85.5
14:00 16.7 16.3 85.2 1011.0 12.7 SSE 22.3 SSE 0.0 34.7
14:05 16.5 15.8 86.9 1011.0 7.9 SSE 14.2 SSE 0.0 59.1
14:10 16.3 15.7 87.5 1011.2 9.3 SSE 16.9 SSE 0.1 46.7
Máxima 22.4 29.5 91.4 1013.6 14.6 SSE 30.4 SSE 0.1 879.0
Mínima 13.3 12.3 51.8 1010.6
Total 0.1